Time;durP1;ratioP1;P1;durP2;ratioP2;P2;SDS_P1;SDS_P2;PMS_P1;PMS_P2;Temp;Humidity;BMP_temperature;BMP_pressure;BME280_temperature;BME280_humidity;BME280_pressure;Samples;Min_cycle;Max_cycle;Signal;HPM_P1;HPM_P2
2023/05/26 00:02:25;;;;;;;41.90;23.60;;;;;;;14.15;86.04;99184.48;105160;1254;97791;-62
2023/05/26 00:04:52;;;;;;;38.40;22.40;;;;;;;14.14;86.03;99185.01;105045;1258;96561;-62
2023/05/26 00:07:19;;;;;;;38.80;23.20;;;;;;;14.15;86.21;99184.48;105106;1268;96660;-63
2023/05/26 00:09:46;;;;;;;40.30;23.60;;;;;;;14.15;86.39;99183.06;105146;1270;97867;-63
2023/05/26 00:12:14;;;;;;;37.10;23.20;;;;;;;14.13;86.34;99185.71;105095;1258;96545;-63
2023/05/26 00:14:41;;;;;;;39.30;23.00;;;;;;;14.09;86.34;99184.75;105108;1256;96555;-61
2023/05/26 00:17:09;;;;;;;36.30;23.40;;;;;;;14.03;86.28;99182.61;105038;1270;97736;-63
2023/05/26 00:19:37;;;;;;;40.80;24.40;;;;;;;14.01;86.62;99182.52;105115;1273;110915;-62
2023/05/26 00:22:05;;;;;;;38.30;25.50;;;;;;;14.00;86.46;99183.17;105000;1255;99076;-62
2023/05/26 00:24:32;;;;;;;36.00;22.20;;;;;;;14.00;86.73;99181.70;104996;1271;108741;-62
2023/05/26 00:26:59;;;;;;;36.70;23.30;;;;;;;14.02;86.78;99179.48;105045;1258;96927;-64
2023/05/26 00:29:26;;;;;;;34.30;22.30;;;;;;;14.08;86.86;99174.48;105027;1260;96591;-65
2023/05/26 00:31:56;;;;;;;33.80;21.30;;;;;;;14.10;86.81;99168.56;105098;1260;110823;-64
2023/05/26 00:34:23;;;;;;;36.20;22.80;;;;;;;14.14;86.61;99166.39;105175;1256;99311;-64
2023/05/26 00:36:50;;;;;;;35.30;21.90;;;;;;;14.10;86.28;99168.35;105188;1254;96529;-62
2023/05/26 00:39:17;;;;;;;37.30;24.70;;;;;;;14.02;86.35;99165.50;105088;1264;97145;-62
2023/05/26 00:41:44;;;;;;;37.20;22.40;;;;;;;13.97;86.46;99166.36;105112;1258;96549;-62
2023/05/26 00:44:11;;;;;;;35.20;22.30;;;;;;;13.92;86.50;99161.44;105116;1268;97455;-63
2023/05/26 00:46:39;;;;;;;33.60;22.40;;;;;;;13.90;86.78;99159.13;105186;1257;96569;-62
2023/05/26 00:49:06;;;;;;;36.00;21.90;;;;;;;13.90;87.07;99156.28;105081;1254;96559;-63
2023/05/26 00:51:33;;;;;;;35.20;22.60;;;;;;;13.89;86.77;99155.53;105116;1259;97460;-62
2023/05/26 00:54:00;;;;;;;38.50;23.60;;;;;;;13.85;86.62;99155.16;105136;1254;96536;-63
2023/05/26 00:56:28;;;;;;;33.30;21.40;;;;;;;13.82;86.77;99152.40;105163;1260;96500;-63
2023/05/26 00:58:56;;;;;;;38.40;22.30;;;;;;;13.83;87.00;99147.80;105204;1259;97850;-63
2023/05/26 01:01:25;;;;;;;31.80;20.50;;;;;;;13.90;86.99;99145.14;105191;1273;96533;-62
2023/05/26 01:03:52;;;;;;;35.40;22.20;;;;;;;13.97;86.75;99147.31;105196;1255;96650;-61
2023/05/26 01:06:22;;;;;;;34.50;20.90;;;;;;;13.99;86.69;99144.16;105185;1256;96977;-62
2023/05/26 01:08:49;;;;;;;34.90;21.80;;;;;;;13.98;86.59;99143.09;105114;1260;111043;-62
2023/05/26 01:11:42;;;;;;;34.80;21.90;;;;;;;13.96;86.70;99139.39;105190;1257;97849;-62
2023/05/26 01:14:25;;;;;;;44.70;24.00;;;;;;;13.94;86.68;99138.45;105028;1261;107633;-62
2023/05/26 01:17:03;;;;;;;40.40;24.00;;;;;;;13.90;86.76;99138.65;105153;1259;97492;-62
2023/05/26 01:19:50;;;;;;;43.80;24.60;;;;;;;13.85;86.90;99138.58;105043;1263;97103;-61
2023/05/26 01:22:32;;;;;;;41.70;24.80;;;;;;;13.78;86.79;99135.90;105086;1260;110323;-62
2023/05/26 01:25:17;;;;;;;41.80;24.80;;;;;;;13.71;87.14;99137.15;105157;1254;100249;-62
2023/05/26 01:27:47;;;;;;;39.10;23.60;;;;;;;13.72;87.30;99139.04;105003;1257;108109;-63
2023/05/26 01:30:16;;;;;;;37.40;23.10;;;;;;;13.73;87.04;99137.19;104924;1261;97659;-62
2023/05/26 01:32:47;;;;;;;34.70;21.40;;;;;;;13.69;87.04;99140.88;105060;1254;96996;-64
2023/05/26 01:35:15;;;;;;;34.50;21.80;;;;;;;13.66;87.18;99138.61;105051;1258;110327;-64
2023/05/26 01:37:45;;;;;;;37.40;21.30;;;;;;;13.65;87.16;99136.59;105160;1257;99212;-64
2023/05/26 01:40:15;;;;;;;32.80;21.30;;;;;;;13.62;87.16;99142.36;104974;1259;108398;-62
2023/05/26 01:42:55;;;;;;;36.60;22.40;;;;;;;13.57;87.16;99141.19;104971;1261;96811;-64
2023/05/26 01:45:30;;;;;;;35.10;21.60;;;;;;;13.49;87.45;99143.30;105146;1257;96520;-63
2023/05/26 01:48:04;;;;;;;36.60;23.10;;;;;;;13.41;87.65;99139.55;104867;1263;110502;-65
2023/05/26 01:50:51;;;;;;;37.90;23.10;;;;;;;13.33;87.93;99135.59;105178;1257;98920;-63
2023/05/26 01:53:29;;;;;;;36.30;23.40;;;;;;;13.26;88.13;99127.38;105137;1257;108921;-63
2023/05/26 01:56:01;;;;;;;36.70;22.20;;;;;;;13.19;88.34;99127.27;105220;1269;96652;-62
2023/05/26 01:58:29;;;;;;;41.00;24.10;;;;;;;13.11;88.37;99124.29;104883;1263;96884;-62
2023/05/26 02:00:58;;;;;;;37.00;23.70;;;;;;;13.05;88.66;99119.45;105216;1268;110819;-62
2023/05/26 02:03:26;;;;;;;38.60;23.10;;;;;;;13.01;88.87;99117.95;104889;1254;98200;-62
2023/05/26 02:05:53;;;;;;;41.10;24.00;;;;;;;12.99;88.93;99118.77;105078;1268;106805;-62
2023/05/26 02:08:22;;;;;;;39.00;23.60;;;;;;;12.94;89.15;99118.77;105060;1267;96570;-62
2023/05/26 02:10:49;;;;;;;36.70;23.20;;;;;;;12.90;89.44;99120.86;104987;1260;98376;-62
2023/05/26 02:13:19;;;;;;;39.80;23.80;;;;;;;12.86;89.53;99123.60;105212;1267;96554;-63
2023/05/26 02:15:55;;;;;;;41.20;24.00;;;;;;;12.86;89.72;99126.12;105217;1259;98014;-62
2023/05/26 02:18:31;;;;;;;37.60;23.40;;;;;;;12.84;89.93;99131.73;105225;1272;108059;-63
2023/05/26 02:21:05;;;;;;;38.00;23.10;;;;;;;12.81;90.22;99128.06;105257;1257;96613;-63
2023/05/26 02:23:34;;;;;;;36.00;21.80;;;;;;;12.82;90.29;99127.69;105254;1257;97730;-63
2023/05/26 02:26:07;;;;;;;35.30;22.20;;;;;;;12.82;90.29;99125.58;105244;1257;110822;-63
2023/05/26 02:28:34;;;;;;;36.10;22.50;;;;;;;12.85;90.28;99117.02;105271;1257;97329;-63
2023/05/26 02:31:01;;;;;;;36.50;22.50;;;;;;;12.89;90.35;99117.20;105212;1266;96636;-63
2023/05/26 02:33:28;;;;;;;33.10;21.50;;;;;;;12.92;90.19;99118.24;105262;1257;96518;-63
2023/05/26 02:35:55;;;;;;;35.70;21.70;;;;;;;12.93;90.03;99113.65;105231;1252;96538;-63
2023/05/26 02:38:22;;;;;;;38.70;22.80;;;;;;;12.93;90.06;99116.92;105254;1257;96948;-63
2023/05/26 02:40:50;;;;;;;37.10;23.10;;;;;;;12.91;90.02;99121.80;105158;1266;97042;-62
2023/05/26 02:43:20;;;;;;;36.70;22.50;;;;;;;12.88;90.10;99120.85;105257;1257;96606;-62
2023/05/26 02:45:47;;;;;;;38.50;23.10;;;;;;;12.81;90.07;99119.60;105239;1265;97469;-62
2023/05/26 02:48:14;;;;;;;36.60;23.40;;;;;;;12.77;90.11;99119.30;105237;1256;97047;-63
2023/05/26 02:50:42;;;;;;;40.70;22.50;;;;;;;12.67;90.02;99120.86;105275;1257;96470;-63
2023/05/26 02:53:09;;;;;;;38.00;22.90;;;;;;;12.57;90.51;99123.44;105268;1254;97358;-63
2023/05/26 02:55:38;;;;;;;37.80;22.50;;;;;;;12.56;90.68;99124.79;105224;1257;97848;-62
2023/05/26 02:58:05;;;;;;;37.60;22.90;;;;;;;12.57;90.71;99124.31;105062;1269;96609;-62
2023/05/26 03:00:33;;;;;;;40.80;23.50;;;;;;;12.58;90.88;99125.95;105204;1257;96535;-63
2023/05/26 03:03:00;;;;;;;41.20;24.20;;;;;;;12.57;90.91;99123.50;105266;1257;97430;-62
2023/05/26 03:05:27;;;;;;;44.10;23.90;;;;;;;12.60;91.19;99124.64;105210;1257;96618;-62
2023/05/26 03:07:55;;;;;;;40.00;23.20;;;;;;;12.64;91.08;99124.69;105137;1268;96968;-62
2023/05/26 03:10:22;;;;;;;39.00;23.90;;;;;;;12.68;91.01;99127.23;104942;1257;97320;-69
2023/05/26 03:12:49;;;;;;;39.10;23.20;;;;;;;12.76;91.07;99126.73;105095;1257;97850;-63
2023/05/26 03:15:17;;;;;;;37.70;23.50;;;;;;;12.81;90.48;99126.55;105179;1257;97057;-64
2023/05/26 03:17:44;;;;;;;35.40;22.10;;;;;;;12.72;90.35;99127.16;105307;1257;96705;-63
2023/05/26 03:20:11;;;;;;;43.10;23.70;;;;;;;12.68;90.90;99126.77;105290;1259;97337;-62
2023/05/26 03:22:38;;;;;;;35.70;23.10;;;;;;;12.70;91.22;99127.05;105234;1254;97785;-62
2023/05/26 03:25:15;;;;;;;35.20;22.10;;;;;;;12.73;91.37;99123.80;105038;1258;96520;-62
2023/05/26 03:27:42;;;;;;;56.60;30.00;;;;;;;12.81;91.69;99121.21;105208;1254;96539;-62
2023/05/26 03:30:09;;;;;;;45.60;25.90;;;;;;;12.85;91.48;99119.61;105197;1268;97470;-62
2023/05/26 03:32:36;;;;;;;40.00;24.10;;;;;;;12.90;91.42;99119.70;105105;1257;97871;-63
2023/05/26 03:35:04;;;;;;;42.40;23.60;;;;;;;12.93;91.11;99119.05;105137;1257;96542;-62
2023/05/26 03:37:31;;;;;;;37.90;23.70;;;;;;;12.96;90.90;99120.20;105311;1257;96552;-62
2023/05/26 03:39:58;;;;;;;43.90;24.30;;;;;;;13.01;91.07;99122.80;105212;1256;97873;-62
2023/05/26 03:42:26;;;;;;;38.70;23.00;;;;;;;13.09;91.27;99124.41;105231;1257;97407;-62
2023/05/26 03:44:52;;;;;;;40.70;24.60;;;;;;;13.16;90.85;99124.92;105253;1257;96532;-62
2023/05/26 03:47:20;;;;;;;40.70;23.90;;;;;;;13.21;90.80;99124.00;105199;1257;96593;-62
2023/05/26 03:49:47;;;;;;;35.50;21.40;;;;;;;13.27;90.69;99123.16;105273;1257;97200;-62
2023/05/26 03:52:14;;;;;;;34.90;22.50;;;;;;;13.32;90.63;99119.56;105149;1263;97445;-62
2023/05/26 03:54:41;;;;;;;37.00;21.70;;;;;;;13.26;91.02;99120.00;105221;1270;96663;-62
2023/05/26 03:57:09;;;;;;;39.00;23.10;;;;;;;13.19;91.41;99115.02;105177;1257;96606;-62
2023/05/26 03:59:36;;;;;;;36.70;23.60;;;;;;;13.16;91.72;99116.05;105212;1257;96551;-62
2023/05/26 04:02:04;;;;;;;40.10;22.90;;;;;;;13.15;91.92;99115.14;105235;1268;96530;-63
2023/05/26 04:04:31;;;;;;;41.70;23.50;;;;;;;13.22;92.27;99119.34;105201;1257;97886;-63
2023/05/26 04:06:58;;;;;;;37.90;23.20;;;;;;;13.29;91.72;99122.61;105249;1257;96529;-63
2023/05/26 04:09:26;;;;;;;39.10;23.10;;;;;;;13.34;91.88;99123.63;105251;1266;97472;-63
2023/05/26 04:11:53;;;;;;;37.30;22.40;;;;;;;13.41;91.58;99122.97;105149;1257;96472;-64
2023/05/26 04:14:21;;;;;;;36.90;23.40;;;;;;;13.50;91.66;99122.58;105250;1265;96627;-63
2023/05/26 04:16:48;;;;;;;36.10;22.80;;;;;;;13.57;91.58;99120.72;105297;1265;96526;-63
2023/05/26 04:19:15;;;;;;;37.50;22.20;;;;;;;13.60;91.45;99121.02;105233;1260;96555;-62
2023/05/26 04:21:42;;;;;;;36.90;21.90;;;;;;;13.63;91.50;99121.30;105309;1254;97524;-63
2023/05/26 04:24:09;;;;;;;34.40;21.90;;;;;;;13.66;91.51;99119.88;105059;1260;96712;-63
2023/05/26 04:26:37;;;;;;;38.90;23.40;;;;;;;13.65;91.73;99117.93;105255;1254;97782;-64
2023/05/26 04:29:04;;;;;;;37.30;23.50;;;;;;;13.68;91.55;99122.19;105097;1254;99238;-63
2023/05/26 04:31:31;;;;;;;40.20;23.40;;;;;;;13.68;91.66;99127.53;105020;1267;96631;-62
2023/05/26 04:33:58;;;;;;;36.20;22.50;;;;;;;13.75;91.64;99131.01;105190;1268;96635;-63
2023/05/26 04:36:25;;;;;;;38.10;22.90;;;;;;;13.79;91.42;99138.71;105169;1266;97438;-67
2023/05/26 04:38:54;;;;;;;34.40;22.30;;;;;;;13.82;91.41;99139.79;105220;1265;96631;-62
2023/05/26 04:41:27;;;;;;;40.30;24.10;;;;;;;13.86;90.97;99142.17;105328;1257;99161;-63
2023/05/26 04:43:58;;;;;;;38.10;24.20;;;;;;;13.89;91.06;99143.24;105075;1260;108221;-63
2023/05/26 04:46:39;;;;;;;34.80;21.80;;;;;;;13.97;90.98;99143.83;105202;1267;96533;-63
2023/05/26 04:49:16;;;;;;;37.40;23.30;;;;;;;14.01;90.76;99142.89;105215;1257;96462;-63
2023/05/26 04:51:57;;;;;;;33.50;22.10;;;;;;;14.04;90.57;99149.77;105273;1266;110921;-63
2023/05/26 04:54:40;;;;;;;37.90;21.90;;;;;;;14.05;90.52;99154.60;105094;1257;98965;-63
2023/05/26 04:57:22;;;;;;;39.60;21.40;;;;;;;14.03;90.44;99152.02;105255;1258;108237;-63
2023/05/26 04:59:59;;;;;;;34.30;21.40;;;;;;;14.06;90.56;99153.20;104990;1261;96702;-63
2023/05/26 05:02:26;;;;;;;34.50;21.60;;;;;;;14.05;90.27;99153.89;105205;1257;96565;-63
2023/05/26 05:04:53;;;;;;;29.70;19.70;;;;;;;14.06;90.08;99152.04;105281;1259;96485;-63
2023/05/26 05:07:21;;;;;;;32.70;20.50;;;;;;;14.13;89.97;99153.98;105217;1257;97858;-63
2023/05/26 05:09:49;;;;;;;31.60;20.30;;;;;;;14.19;89.98;99155.81;105275;1267;96557;-63
2023/05/26 05:12:19;;;;;;;31.90;20.80;;;;;;;14.23;89.63;99153.65;105234;1257;96463;-63
2023/05/26 05:14:55;;;;;;;29.80;19.40;;;;;;;14.28;89.41;99153.77;105175;1257;96542;-63
2023/05/26 05:17:23;;;;;;;29.30;20.80;;;;;;;14.30;89.28;99149.29;105229;1261;96629;-62
2023/05/26 05:19:51;;;;;;;32.50;21.10;;;;;;;14.39;89.11;99151.63;105316;1257;99233;-62
2023/05/26 05:22:39;;;;;;;29.50;19.70;;;;;;;14.38;88.85;99155.54;105180;1257;110226;-62
2023/05/26 05:25:08;;;;;;;28.20;19.40;;;;;;;14.36;88.93;99151.29;105159;1257;96702;-63
2023/05/26 05:27:35;;;;;;;32.10;20.00;;;;;;;14.38;88.67;99151.48;105070;1260;98200;-63
2023/05/26 05:30:03;;;;;;;30.80;19.40;;;;;;;14.42;88.40;99153.22;105194;1257;96539;-63
2023/05/26 05:32:31;;;;;;;28.10;18.60;;;;;;;14.46;88.43;99154.60;105045;1272;98206;-62
2023/05/26 05:34:59;;;;;;;28.70;19.70;;;;;;;14.51;88.47;99156.73;105108;1260;107519;-62
2023/05/26 05:37:26;;;;;;;27.50;18.70;;;;;;;14.49;88.18;99153.40;105291;1257;97734;-62
2023/05/26 05:39:53;;;;;;;31.80;19.40;;;;;;;14.51;88.32;99157.94;105272;1256;96571;-62
2023/05/26 05:42:24;;;;;;;30.10;19.20;;;;;;;14.53;88.32;99156.64;105257;1256;96483;-62
2023/05/26 05:44:51;;;;;;;32.80;19.40;;;;;;;14.53;88.05;99158.05;105207;1257;99446;-62
2023/05/26 05:47:21;;;;;;;29.30;19.00;;;;;;;14.57;88.26;99162.27;105025;1258;107588;-62
2023/05/26 05:49:53;;;;;;;30.50;19.40;;;;;;;14.52;88.06;99163.27;105306;1257;96738;-62
2023/05/26 05:52:25;;;;;;;28.40;18.80;;;;;;;14.57;88.19;99167.36;105112;1260;97730;-62
2023/05/26 05:54:52;;;;;;;25.40;17.60;;;;;;;14.63;87.85;99169.41;104984;1257;96632;-62
2023/05/26 05:57:20;;;;;;;28.90;18.00;;;;;;;14.66;87.86;99165.79;104784;1269;97974;-62
2023/05/26 05:59:47;;;;;;;29.60;17.60;;;;;;;14.71;87.78;99167.33;105164;1257;96618;-64
2023/05/26 06:02:14;;;;;;;24.70;17.60;;;;;;;14.76;87.69;99166.54;105176;1264;96606;-63
2023/05/26 06:04:42;;;;;;;31.40;18.50;;;;;;;14.77;87.34;99171.06;105241;1257;96584;-63
2023/05/26 06:07:09;;;;;;;28.50;18.20;;;;;;;14.83;87.38;99169.50;105164;1254;96628;-63
2023/05/26 06:09:36;;;;;;;25.30;16.90;;;;;;;14.83;87.10;99174.40;105208;1260;97213;-63
2023/05/26 06:12:04;;;;;;;28.10;17.80;;;;;;;14.78;86.63;99178.59;105234;1260;96637;-62
2023/05/26 06:14:32;;;;;;;26.50;17.40;;;;;;;14.77;86.73;99180.38;105204;1258;96589;-63
2023/05/26 06:16:59;;;;;;;25.70;17.70;;;;;;;14.83;86.87;99178.91;105176;1257;97048;-63
2023/05/26 06:19:27;;;;;;;25.10;16.10;;;;;;;14.94;86.68;99173.74;105045;1270;109420;-62
2023/05/26 06:21:54;;;;;;;26.60;16.40;;;;;;;15.02;86.17;99178.87;105206;1259;97848;-63
2023/05/26 06:24:21;;;;;;;25.60;17.10;;;;;;;15.11;86.46;99177.67;105205;1260;97878;-64
2023/05/26 06:26:48;;;;;;;24.20;16.30;;;;;;;15.20;86.16;99179.14;105213;1257;96609;-63
2023/05/26 06:29:16;;;;;;;25.20;16.40;;;;;;;15.28;85.55;99182.91;105231;1257;96596;-63
2023/05/26 06:31:43;;;;;;;25.00;17.60;;;;;;;15.43;85.59;99182.02;105209;1268;96993;-62
2023/05/26 06:34:11;;;;;;;24.70;16.70;;;;;;;15.53;85.08;99189.89;105278;1260;97959;-62
2023/05/26 06:36:38;;;;;;;27.50;17.80;;;;;;;15.56;84.74;99187.48;105230;1268;97230;-62
2023/05/26 06:39:06;;;;;;;26.30;17.00;;;;;;;15.63;85.00;99186.96;105228;1260;97423;-62
2023/05/26 06:41:34;;;;;;;22.60;16.50;;;;;;;15.77;84.75;99189.48;105284;1259;96541;-62
2023/05/26 06:44:01;;;;;;;23.50;15.90;;;;;;;15.92;84.40;99191.69;105206;1267;96622;-62
2023/05/26 06:46:28;;;;;;;26.10;15.30;;;;;;;16.04;84.38;99196.36;105220;1260;97905;-62
2023/05/26 06:48:56;;;;;;;21.80;15.20;;;;;;;16.18;83.78;99197.98;105191;1267;97333;-62
2023/05/26 06:51:23;;;;;;;25.80;14.80;;;;;;;16.30;83.20;99198.66;105197;1257;96532;-62
2023/05/26 06:53:51;;;;;;;22.10;14.90;;;;;;;16.39;81.76;99202.05;105172;1260;96946;-62
2023/05/26 06:56:18;;;;;;;21.30;15.30;;;;;;;16.49;81.48;99200.83;105253;1260;110324;-62
2023/05/26 06:58:46;;;;;;;25.30;15.50;;;;;;;16.69;82.36;99203.17;105201;1269;99159;-62
2023/05/26 07:01:13;;;;;;;19.70;13.70;;;;;;;16.90;81.23;99197.55;105122;1258;96553;-62
2023/05/26 07:03:40;;;;;;;22.90;14.10;;;;;;;17.01;80.61;99200.20;105246;1257;96562;-62
2023/05/26 07:06:08;;;;;;;21.60;13.90;;;;;;;17.09;79.15;99201.30;105228;1254;96981;-63
2023/05/26 07:08:35;;;;;;;21.50;14.90;;;;;;;17.24;80.02;99199.56;105196;1267;96557;-63
2023/05/26 07:11:03;;;;;;;18.40;12.70;;;;;;;17.30;77.29;99195.80;105243;1267;97522;-63
2023/05/26 07:13:31;;;;;;;19.30;13.10;;;;;;;17.16;77.02;99197.80;105218;1267;108630;-62
2023/05/26 07:15:58;;;;;;;16.50;13.10;;;;;;;17.25;79.09;99193.98;105242;1254;96532;-62
2023/05/26 07:18:26;;;;;;;18.90;14.00;;;;;;;17.52;79.33;99196.74;105260;1260;96453;-62
2023/05/26 07:20:54;;;;;;;22.10;14.10;;;;;;;17.74;77.98;99194.88;105240;1264;97349;-62
2023/05/26 07:23:22;;;;;;;23.00;14.60;;;;;;;17.87;77.47;99189.09;105217;1260;99176;-62
2023/05/26 07:25:49;;;;;;;22.70;14.60;;;;;;;17.96;77.17;99188.70;105241;1267;108621;-62
2023/05/26 07:28:16;;;;;;;22.40;14.40;;;;;;;18.13;77.88;99192.69;105208;1261;97731;-62
2023/05/26 07:30:44;;;;;;;18.80;13.60;;;;;;;18.38;77.73;99200.05;105140;1261;96546;-62
2023/05/26 07:33:12;;;;;;;19.80;13.10;;;;;;;18.63;76.84;99200.11;105176;1268;110863;-62
2023/05/26 07:35:39;;;;;;;20.50;14.10;;;;;;;18.73;76.15;99199.55;105104;1267;96548;-62
2023/05/26 07:38:07;;;;;;;19.30;13.10;;;;;;;18.83;75.84;99202.84;105227;1267;96599;-63
2023/05/26 07:40:35;;;;;;;17.90;12.70;;;;;;;19.04;74.61;99200.92;105141;1260;96533;-64
2023/05/26 07:43:03;;;;;;;15.90;11.80;;;;;;;19.18;74.29;99194.08;105229;1261;96558;-63
2023/05/26 07:45:30;;;;;;;17.20;12.60;;;;;;;19.51;74.14;99193.89;105043;1262;110262;-62
2023/05/26 07:47:58;;;;;;;15.60;11.40;;;;;;;19.80;73.87;99197.95;105244;1264;96525;-62
2023/05/26 07:50:26;;;;;;;17.30;11.70;;;;;;;20.16;73.12;99196.75;105154;1267;97845;-62
2023/05/26 07:52:53;;;;;;;17.90;11.10;;;;;;;20.54;71.94;99199.31;105251;1267;96673;-63
2023/05/26 07:55:21;;;;;;;15.80;11.30;;;;;;;20.78;69.84;99198.98;105200;1268;96460;-63
2023/05/26 07:57:48;;;;;;;14.40;11.20;;;;;;;21.00;70.44;99197.70;105225;1260;110809;-63
2023/05/26 08:00:16;;;;;;;13.20;10.10;;;;;;;21.34;68.92;99197.77;105224;1260;98743;-61
2023/05/26 08:02:43;;;;;;;14.70;10.90;;;;;;;21.56;67.31;99197.63;104881;1269;107643;-62
2023/05/26 08:05:11;;;;;;;12.90;11.20;;;;;;;21.36;63.45;99201.86;105191;1267;97861;-63
2023/05/26 08:07:39;;;;;;;15.00;10.20;;;;;;;21.23;65.32;99196.17;105137;1260;96536;-63
2023/05/26 08:10:06;;;;;;;13.80;9.90;;;;;;;21.53;66.56;99193.77;104982;1264;97850;-62
2023/05/26 08:12:33;;;;;;;14.10;10.70;;;;;;;21.93;65.50;99194.36;104960;1267;96763;-63
2023/05/26 08:15:13;;;;;;;14.00;10.10;;;;;;;22.28;66.04;99191.04;105211;1267;107759;-63
2023/05/26 08:17:42;;;;;;;16.20;10.20;;;;;;;22.45;63.51;99189.39;105083;1268;97531;-64
2023/05/26 08:20:10;;;;;;;15.80;10.70;;;;;;;22.59;64.08;99189.48;105313;1269;96572;-63
2023/05/26 08:22:38;;;;;;;14.10;9.80;;;;;;;22.79;64.11;99193.75;104993;1273;109969;-63
2023/05/26 08:25:06;;;;;;;13.70;10.30;;;;;;;23.06;63.60;99193.69;105236;1268;97933;-63
2023/05/26 08:27:33;;;;;;;13.80;9.70;;;;;;;23.30;62.77;99192.36;105052;1268;255152;-63
2023/05/26 08:30:01;;;;;;;12.10;9.90;;;;;;;23.38;61.77;99194.69;105200;1260;97859;-63
2023/05/26 08:32:28;;;;;;;12.10;10.00;;;;;;;23.59;61.29;99197.87;105192;1260;96631;-63
2023/05/26 08:34:56;;;;;;;14.90;10.20;;;;;;;23.64;60.14;99199.98;105067;1269;110622;-62
2023/05/26 08:37:23;;;;;;;13.50;9.70;;;;;;;23.63;59.47;99199.66;105279;1268;99300;-62
2023/05/26 08:39:50;;;;;;;13.30;9.70;;;;;;;23.72;59.74;99198.98;105210;1266;97480;-63
2023/05/26 08:42:20;;;;;;;14.60;9.70;;;;;;;23.81;59.05;99202.16;105193;1269;97451;-63
2023/05/26 08:45:00;;;;;;;11.90;9.60;;;;;;;24.15;57.98;99199.63;105256;1254;97731;-63
2023/05/26 08:47:34;;;;;;;12.00;9.40;;;;;;;24.14;56.64;99201.63;105060;1264;110892;-63
2023/05/26 08:50:05;;;;;;;11.40;9.50;;;;;;;24.34;57.24;99202.90;104803;1260;97975;-63
2023/05/26 08:52:34;;;;;;;10.80;9.70;;;;;;;24.67;56.31;99203.15;104826;1271;107664;-63
2023/05/26 08:55:01;;;;;;;11.70;9.40;;;;;;;24.79;56.42;99197.34;105025;1262;96550;-64
2023/05/26 08:57:32;;;;;;;14.00;9.60;;;;;;;25.28;56.33;99201.63;105215;1260;96564;-64
2023/05/26 09:00:04;;;;;;;10.30;9.00;;;;;;;25.49;54.76;99203.70;105240;1264;110995;-62
2023/05/26 09:02:32;;;;;;;11.20;8.30;;;;;;;25.77;53.00;99204.71;105230;1259;99099;-63
2023/05/26 09:04:59;;;;;;;9.90;8.90;;;;;;;25.63;51.05;99203.21;105344;1267;108486;-62
2023/05/26 09:07:27;;;;;;;10.00;8.70;;;;;;;25.15;51.85;99207.32;105206;1259;96698;-62
2023/05/26 09:10:26;;;;;;;9.90;8.70;;;;;;;24.99;53.23;99210.59;105209;1258;97848;-62
2023/05/26 09:13:10;;;;;;;12.20;9.30;;;;;;;25.00;52.98;99206.52;105015;1261;110476;-62
2023/05/26 09:15:38;;;;;;;11.90;8.70;;;;;;;25.10;53.47;99210.21;105195;1260;99201;-63
2023/05/26 09:18:05;;;;;;;10.00;8.70;;;;;;;25.20;52.39;99204.60;105187;1257;108316;-62
2023/05/26 09:20:38;;;;;;;9.20;8.00;;;;;;;24.68;52.22;99211.48;105274;1266;96490;-62
2023/05/26 09:23:08;;;;;;;10.30;8.50;;;;;;;24.61;53.40;99214.42;105123;1267;97842;-62
2023/05/26 09:25:37;;;;;;;12.10;8.60;;;;;;;24.78;53.05;99208.70;105011;1260;109576;-63
2023/05/26 09:28:07;;;;;;;10.00;8.30;;;;;;;24.53;52.02;99208.88;105268;1257;99198;-63
2023/05/26 09:30:40;;;;;;;8.90;7.20;;;;;;;23.94;52.82;99214.86;105021;1262;107635;-63
2023/05/26 09:33:13;;;;;;;8.80;7.70;;;;;;;23.38;54.03;99214.25;105214;1269;97845;-62
2023/05/26 09:35:50;;;;;;;9.90;7.50;;;;;;;23.30;55.48;99218.41;105208;1267;96543;-63
2023/05/26 09:38:22;;;;;;;8.50;7.20;;;;;;;23.57;55.73;99217.83;105209;1275;110023;-63
2023/05/26 09:40:54;;;;;;;8.80;7.20;;;;;;;23.53;54.59;99217.80;105011;1263;98248;-63
2023/05/26 09:43:22;;;;;;;9.30;7.50;;;;;;;23.59;55.08;99217.69;105175;1267;107620;-62
2023/05/26 09:45:50;;;;;;;9.90;7.50;;;;;;;23.75;54.49;99215.71;105157;1268;97057;-62
2023/05/26 09:48:17;;;;;;;9.50;7.50;;;;;;;23.62;54.07;99219.62;105311;1260;96555;-63
2023/05/26 09:50:45;;;;;;;9.70;7.60;;;;;;;23.48;55.48;99222.17;105132;1257;109886;-63
2023/05/26 09:53:12;;;;;;;10.30;8.30;;;;;;;23.54;54.24;99223.41;105158;1267;96536;-62
2023/05/26 09:55:42;;;;;;;8.90;7.60;;;;;;;23.08;54.76;99218.55;105240;1257;96621;-63
2023/05/26 09:58:12;;;;;;;9.40;7.40;;;;;;;22.93;56.93;99220.16;105012;1270;96613;-63
2023/05/26 10:00:41;;;;;;;9.00;6.90;;;;;;;23.29;56.97;99217.29;104948;1260;96532;-63
2023/05/26 10:03:10;;;;;;;8.60;7.70;;;;;;;23.57;56.73;99216.96;105071;1264;110064;-63
2023/05/26 10:05:45;;;;;;;11.30;8.20;;;;;;;23.93;55.86;99215.50;105238;1260;99437;-63
2023/05/26 10:08:19;;;;;;;10.50;8.30;;;;;;;23.92;54.30;99211.02;105193;1268;108161;-63
2023/05/26 10:10:50;;;;;;;9.30;7.70;;;;;;;24.22;55.91;99214.13;105038;1270;96478;-63
2023/05/26 10:13:18;;;;;;;9.90;8.30;;;;;;;24.86;53.65;99208.42;104910;1270;96702;-67
2023/05/26 10:15:48;;;;;;;9.90;7.50;;;;;;;25.09;52.76;99209.09;105036;1269;111559;-64
2023/05/26 10:18:15;;;;;;;10.90;7.60;;;;;;;24.94;52.90;99200.02;105179;1267;99324;-65
2023/05/26 10:20:47;;;;;;;10.60;6.90;;;;;;;25.05;51.56;99201.80;105241;1257;108095;-62
2023/05/26 10:23:22;;;;;;;8.80;7.70;;;;;;;25.35;52.20;99202.27;105228;1254;96628;-63
2023/05/26 10:26:10;;;;;;;9.60;6.90;;;;;;;25.70;50.24;99198.23;105250;1268;96597;-63
2023/05/26 10:28:41;;;;;;;8.70;6.90;;;;;;;25.83;49.14;99196.04;105216;1267;110794;-63
2023/05/26 10:31:08;;;;;;;9.50;6.90;;;;;;;25.80;50.53;99196.78;105066;1260;98720;-62
2023/05/26 10:33:44;;;;;;;9.90;6.80;;;;;;;25.84;49.74;99195.41;105183;1267;97455;-63
2023/05/26 10:36:20;;;;;;;7.80;6.10;;;;;;;25.89;49.50;99199.64;105224;1258;96549;-64
2023/05/26 10:39:00;;;;;;;7.70;6.70;;;;;;;25.81;48.52;99195.65;105025;1271;96677;-62
2023/05/26 10:41:49;;;;;;;9.60;6.90;;;;;;;25.67;50.02;99199.61;105231;1266;111048;-62
2023/05/26 10:44:40;;;;;;;9.90;6.50;;;;;;;25.91;49.63;99198.18;105042;1264;99089;-63
2023/05/26 10:47:20;;;;;;;7.60;5.60;;;;;;;26.14;49.19;99191.36;105352;1267;108536;-63
2023/05/26 10:49:57;;;;;;;8.40;6.00;;;;;;;26.37;47.62;99192.33;105220;1267;96564;-63
2023/05/26 10:52:50;;;;;;;7.30;6.10;;;;;;;26.35;46.46;99187.52;105266;1254;96548;-62
2023/05/26 10:55:54;;;;;;;7.20;6.00;;;;;;;26.20;47.57;99189.48;105051;1268;110305;-62
2023/05/26 10:58:50;;;;;;;6.90;4.80;;;;;;;26.03;47.56;99186.91;105214;1267;100132;-63
2023/05/26 11:01:28;;;;;;;6.00;4.60;;;;;;;25.67;45.97;99191.48;105005;1260;108155;-62
2023/05/26 11:04:13;;;;;;;8.30;4.50;;;;;;;24.91;45.97;99184.48;105232;1260;97855;-62
2023/05/26 11:07:02;;;;;;;4.80;4.30;;;;;;;25.00;48.15;99187.52;105240;1257;97743;-63
2023/05/26 11:09:34;;;;;;;9.90;6.60;;;;;;;25.35;48.52;99190.80;104831;1272;110348;-63
2023/05/26 11:12:06;;;;;;;6.20;4.90;;;;;;;25.30;48.62;99188.02;104908;1257;96631;-63
2023/05/26 11:14:34;;;;;;;6.40;4.90;;;;;;;25.32;49.04;99191.45;104960;1260;108588;-62
2023/05/26 11:17:04;;;;;;;7.10;4.60;;;;;;;25.66;48.86;99184.46;104903;1260;96542;-62
2023/05/26 11:19:36;;;;;;;6.30;4.30;;;;;;;25.99;48.49;99180.83;104996;1254;97771;-63
2023/05/26 11:22:08;;;;;;;8.10;4.10;;;;;;;25.94;46.76;99180.20;104888;1259;109375;-62
2023/05/26 11:24:36;;;;;;;7.70;4.50;;;;;;;25.92;47.34;99175.71;104981;1267;99553;-63
2023/05/26 11:27:08;;;;;;;6.80;4.90;;;;;;;25.74;45.82;99177.05;104909;1268;108425;-62